Weather at Lajes Airport

Public forecast

Using degrees Celsius for public forecast. Weather courtesy of forecast.io.

Current aviation weather report (METAR) for Lajes Airport

Retrieved 2021/04/21 07:00 UTC (44 minutes ago):

LPLA 210700Z /////KT 9999 SCT018 SCT025 16/13 Q1012

Aviation forecast (TAF) for Lajes Airport

Forecast is more than 6 hours old.

Retrieved 2021-04-21 00:18 UTC (7 hours ago):

TAF TAF LPLA 202315Z 2100/2124 28010KT 9999 FEW025 BECMG 2108/2110 22012KT SCT014 SCT030 TEMPO 2113/2116 20015G28KT 6000 -RA BKN018 BECMG 2115/2117 21020KT SCT007 BKN016 TEMPO 2116/2124 21025G38KT 3000 RADZ BR SCT004 BKN008